Time;durP1;ratioP1;P1;durP2;ratioP2;P2;SDS_P1;SDS_P2;PMS_P1;PMS_P2;Temp;Humidity;BMP_temperature;BMP_pressure;BME280_temperature;BME280_humidity;BME280_pressure;Samples;Min_cycle;Max_cycle;Signal;HPM_P1;HPM_P2
2023/07/23 00:01:19;;;;;;;14.10;8.63;;;14.40;99.90;;;;;;5074309;28;20046;-63
2023/07/23 00:03:44;;;;;;;13.27;8.50;;;14.40;99.90;;;;;;5056346;28;20405;-63
2023/07/23 00:06:10;;;;;;;13.85;8.20;;;14.40;99.90;;;;;;5074206;28;20048;-64
2023/07/23 00:08:36;;;;;;;13.77;9.18;;;14.50;99.90;;;;;;5073808;28;20447;-63
2023/07/23 00:11:02;;;;;;;14.40;8.73;;;14.50;99.90;;;;;;5056188;28;20040;-64
2023/07/23 00:13:27;;;;;;;16.17;9.50;;;14.40;99.90;;;;;;5074113;28;20029;-64
2023/07/23 00:15:53;;;;;;;12.77;8.65;;;14.50;99.90;;;;;;5073666;28;20043;-64
2023/07/23 00:18:22;;;;;;;15.38;9.88;;;14.50;99.90;;;;;;5056305;28;20036;-64
2023/07/23 00:20:47;;;;;;;14.27;9.93;;;14.50;99.90;;;;;;5073426;28;20040;-64
2023/07/23 00:23:13;;;;;;;14.65;9.48;;;14.40;99.90;;;;;;5056005;28;20048;-64
2023/07/23 00:25:39;;;;;;;12.40;8.98;;;14.40;99.90;;;;;;5073634;28;20093;-64
2023/07/23 00:28:06;;;;;;;14.93;9.73;;;14.50;99.90;;;;;;5055740;28;20044;-64
2023/07/23 00:30:32;;;;;;;18.60;10.95;;;14.50;99.90;;;;;;5055759;28;20503;-64
2023/07/23 00:32:57;;;;;;;16.13;10.98;;;14.50;99.90;;;;;;5073444;28;20083;-63
2023/07/23 00:35:23;;;;;;;14.65;10.57;;;14.50;99.90;;;;;;5073630;28;20043;-64
2023/07/23 00:37:49;;;;;;;19.60;11.60;;;14.50;99.90;;;;;;5055318;28;20044;-64
2023/07/23 00:40:15;;;;;;;14.30;10.50;;;14.50;99.90;;;;;;5073614;28;20465;-63
2023/07/23 00:42:40;;;;;;;16.52;10.93;;;14.50;99.90;;;;;;5039281;28;20372;-63
2023/07/23 00:45:06;;;;;;;15.27;10.48;;;14.50;99.90;;;;;;5073541;28;20047;-63
2023/07/23 00:47:32;;;;;;;16.33;11.80;;;14.50;99.90;;;;;;5039000;28;20507;-63
2023/07/23 00:49:58;;;;;;;17.20;10.65;;;14.50;99.90;;;;;;5039363;28;20044;-64
2023/07/23 00:52:24;;;;;;;16.35;10.68;;;14.50;99.90;;;;;;5055183;28;20127;-63
2023/07/23 00:54:50;;;;;;;17.42;9.95;;;14.50;99.90;;;;;;5055235;28;20127;-63
2023/07/23 00:57:16;;;;;;;16.60;11.02;;;14.50;99.90;;;;;;5055639;28;20367;-64
2023/07/23 00:59:42;;;;;;;16.95;11.38;;;14.50;99.90;;;;;;5073341;28;20040;-64
2023/07/23 01:02:08;;;;;;;16.23;10.25;;;14.50;99.90;;;;;;5073103;28;20377;-63
2023/07/23 01:04:35;;;;;;;15.52;10.25;;;14.50;99.90;;;;;;5055273;28;20075;-64
2023/07/23 01:07:04;;;;;;;14.80;10.32;;;14.50;99.90;;;;;;5071987;28;20052;-63
2023/07/23 01:09:32;;;;;;;18.00;10.05;;;14.50;99.90;;;;;;5072975;28;20127;-66
2023/07/23 01:11:58;;;;;;;15.25;10.98;;;14.50;99.90;;;;;;5073240;28;20044;-63
2023/07/23 01:14:24;;;;;;;18.75;11.35;;;14.50;99.90;;;;;;5073076;28;20079;-64
2023/07/23 01:16:50;;;;;;;17.52;10.38;;;14.50;99.90;;;;;;5055091;28;20477;-64
2023/07/23 01:19:16;;;;;;;17.75;11.57;;;14.50;99.90;;;;;;5072847;28;20051;-64
2023/07/23 01:21:41;;;;;;;14.55;10.40;;;14.50;99.90;;;;;;5055219;28;20040;-64
2023/07/23 01:24:07;;;;;;;17.33;11.38;;;14.50;99.90;;;;;;5073068;28;20044;-64
2023/07/23 01:26:33;;;;;;;18.08;11.40;;;14.50;99.90;;;;;;5072767;28;20037;-65
2023/07/23 01:28:59;;;;;;;16.20;11.18;;;14.50;99.90;;;;;;5038163;28;20048;-64
2023/07/23 01:31:25;;;;;;;17.55;10.98;;;14.50;99.90;;;;;;5038009;28;20094;-65
2023/07/23 01:33:52;;;;;;;17.33;11.13;;;14.50;99.90;;;;;;5072603;28;20519;-63
2023/07/23 01:36:18;;;;;;;19.33;12.55;;;14.40;99.90;;;;;;5055139;28;20119;-63
2023/07/23 01:38:45;;;;;;;14.60;11.10;;;14.40;99.90;;;;;;5055074;28;20078;-63
2023/07/23 01:41:11;;;;;;;17.20;12.40;;;14.50;99.90;;;;;;5072664;28;20041;-63
2023/07/23 01:43:38;;;;;;;19.58;12.30;;;14.40;99.90;;;;;;5073060;28;20037;-63
2023/07/23 01:46:04;;;;;;;16.73;11.00;;;14.40;99.90;;;;;;5054874;28;20036;-63
2023/07/23 01:48:29;;;;;;;19.77;11.75;;;14.40;99.90;;;;;;5074142;28;20041;-63
2023/07/23 01:50:55;;;;;;;18.38;11.85;;;14.40;99.90;;;;;;5076838;28;20078;-63
2023/07/23 01:53:22;;;;;;;20.48;12.10;;;14.40;99.90;;;;;;5058453;28;20045;-63
2023/07/23 01:55:48;;;;;;;15.55;10.48;;;14.40;99.90;;;;;;5076487;28;20032;-63
2023/07/23 01:58:13;;;;;;;16.17;11.43;;;14.40;99.90;;;;;;5076445;28;20373;-63
2023/07/23 02:00:39;;;;;;;17.48;11.48;;;14.40;99.90;;;;;;5076295;28;20033;-63
2023/07/23 02:03:06;;;;;;;17.00;11.95;;;14.40;99.90;;;;;;5041714;28;20048;-63
2023/07/23 02:05:31;;;;;;;16.17;11.60;;;14.40;99.90;;;;;;5025288;28;20170;-63
2023/07/23 02:07:57;;;;;;;16.55;10.98;;;14.40;99.90;;;;;;5076163;28;20068;-63
2023/07/23 02:10:23;;;;;;;14.35;10.70;;;14.30;99.90;;;;;;5076098;28;20044;-63
2023/07/23 02:12:49;;;;;;;19.35;12.07;;;14.30;99.90;;;;;;5076009;28;20054;-63
2023/07/23 02:15:14;;;;;;;16.98;11.40;;;14.30;99.90;;;;;;5076407;28;20079;-63
2023/07/23 02:17:40;;;;;;;17.80;11.70;;;14.30;99.90;;;;;;5041849;28;20452;-63
2023/07/23 02:20:06;;;;;;;17.85;11.93;;;14.30;99.90;;;;;;5058274;28;20071;-63
2023/07/23 02:22:33;;;;;;;15.40;11.45;;;14.30;99.90;;;;;;5075866;28;20040;-63
2023/07/23 02:24:59;;;;;;;14.63;9.90;;;14.40;99.90;;;;;;5057930;28;20119;-63
2023/07/23 02:27:24;;;;;;;17.17;12.45;;;14.30;99.90;;;;;;5076121;28;20111;-63
2023/07/23 02:29:50;;;;;;;16.60;10.77;;;14.40;99.90;;;;;;5075694;28;20044;-63
2023/07/23 02:32:16;;;;;;;16.05;10.80;;;14.40;99.90;;;;;;5075472;28;20037;-63
2023/07/23 02:34:42;;;;;;;16.25;11.20;;;14.40;99.90;;;;;;5058100;28;20082;-62
2023/07/23 02:37:08;;;;;;;15.68;10.00;;;14.40;99.90;;;;;;5075810;28;20052;-62
2023/07/23 02:39:33;;;;;;;15.48;10.45;;;14.40;99.90;;;;;;5075616;28;20115;-62
2023/07/23 02:41:59;;;;;;;16.88;10.90;;;14.40;99.90;;;;;;5075644;28;20040;-65
2023/07/23 02:44:25;;;;;;;17.08;11.80;;;14.40;99.90;;;;;;5075518;28;20123;-62
2023/07/23 02:46:50;;;;;;;14.70;11.00;;;14.40;99.90;;;;;;5057600;28;20044;-63
2023/07/23 02:49:16;;;;;;;17.45;11.30;;;14.40;99.90;;;;;;5057744;28;20056;-62
2023/07/23 02:51:42;;;;;;;14.45;11.35;;;14.40;99.90;;;;;;5075699;28;20037;-63
2023/07/23 02:54:08;;;;;;;15.88;11.40;;;14.50;99.90;;;;;;5057494;28;20040;-63
2023/07/23 02:56:35;;;;;;;16.15;11.27;;;14.40;99.90;;;;;;5075526;28;20503;-63
2023/07/23 02:59:03;;;;;;;18.55;12.40;;;14.40;99.90;;;;;;5075456;28;20095;-63
2023/07/23 03:01:29;;;;;;;18.40;12.50;;;14.40;99.90;;;;;;5075606;28;20480;-64
2023/07/23 03:03:55;;;;;;;14.60;11.25;;;14.50;99.90;;;;;;5075238;28;20118;-64
2023/07/23 03:06:21;;;;;;;18.25;12.45;;;14.50;99.90;;;;;;5075048;28;20476;-64
2023/07/23 03:08:47;;;;;;;18.77;13.07;;;14.40;99.90;;;;;;5075159;28;20075;-63
2023/07/23 03:11:12;;;;;;;16.15;11.85;;;14.50;99.90;;;;;;5075341;28;20044;-63
2023/07/23 03:13:38;;;;;;;16.63;11.02;;;14.50;99.90;;;;;;5075018;28;20041;-63
2023/07/23 03:16:04;;;;;;;16.25;12.15;;;14.50;99.90;;;;;;5074839;28;20075;-63
2023/07/23 03:18:30;;;;;;;17.08;11.82;;;14.50;99.90;;;;;;5075014;28;20072;-63
2023/07/23 03:20:56;;;;;;;14.85;11.50;;;14.50;99.90;;;;;;5056958;28;20044;-62
2023/07/23 03:23:22;;;;;;;17.83;12.73;;;14.50;99.90;;;;;;5074811;28;20173;-63
2023/07/23 03:25:48;;;;;;;18.35;13.15;;;14.60;99.90;;;;;;5057026;28;20045;-63
2023/07/23 03:28:14;;;;;;;17.52;12.30;;;14.60;99.90;;;;;;5075062;28;20107;-62
2023/07/23 03:30:39;;;;;;;17.30;13.30;;;14.60;99.90;;;;;;5074867;28;20047;-63
2023/07/23 03:33:05;;;;;;;18.13;13.32;;;14.50;99.90;;;;;;5074548;28;20052;-63
2023/07/23 03:35:31;;;;;;;17.40;12.43;;;14.50;99.90;;;;;;5056914;28;20047;-63
2023/07/23 03:37:57;;;;;;;15.32;11.68;;;14.50;99.90;;;;;;5074527;28;20041;-63
2023/07/23 03:40:23;;;;;;;16.60;11.35;;;14.50;99.90;;;;;;5074476;28;20090;-62
2023/07/23 03:42:48;;;;;;;16.92;12.30;;;14.60;99.90;;;;;;5056862;28;20047;-62
2023/07/23 03:45:14;;;;;;;19.02;13.50;;;14.50;99.90;;;;;;5056284;28;20127;-62
2023/07/23 03:47:40;;;;;;;16.20;11.55;;;14.50;99.90;;;;;;5074453;28;20055;-62
2023/07/23 03:50:06;;;;;;;17.88;12.25;;;14.60;99.90;;;;;;5056698;28;20051;-62
2023/07/23 03:52:32;;;;;;;17.27;12.93;;;14.60;99.90;;;;;;5074392;28;20033;-62
2023/07/23 03:54:58;;;;;;;18.33;13.25;;;14.60;99.90;;;;;;5074467;28;20028;-62
2023/07/23 03:57:23;;;;;;;17.98;11.85;;;14.60;99.90;;;;;;5074063;28;20079;-62
2023/07/23 03:59:49;;;;;;;16.98;12.55;;;14.70;99.90;;;;;;5074063;28;20179;-63
2023/07/23 04:02:15;;;;;;;16.35;12.75;;;14.70;99.90;;;;;;5074275;28;20039;-63
2023/07/23 04:04:41;;;;;;;17.60;13.00;;;14.70;99.90;;;;;;5056370;28;20040;-63
2023/07/23 04:07:08;;;;;;;17.13;12.35;;;14.60;99.90;;;;;;5073968;28;20037;-62
2023/07/23 04:09:34;;;;;;;16.75;11.93;;;14.60;99.90;;;;;;5074067;28;20064;-63
2023/07/23 04:12:00;;;;;;;19.20;12.65;;;14.60;99.90;;;;;;5055465;28;20114;-63
2023/07/23 04:14:26;;;;;;;15.45;12.30;;;14.60;99.90;;;;;;5056277;28;20039;-63
2023/07/23 04:16:54;;;;;;;17.65;13.77;;;14.60;99.90;;;;;;5039262;28;20071;-63
2023/07/23 04:19:19;;;;;;;15.63;12.63;;;14.60;99.90;;;;;;5055735;28;20041;-63
2023/07/23 04:21:45;;;;;;;17.38;11.95;;;14.60;99.90;;;;;;5073976;28;20037;-63
2023/07/23 04:24:11;;;;;;;17.50;12.88;;;14.60;99.90;;;;;;5073591;28;20048;-63
2023/07/23 04:26:37;;;;;;;17.70;12.10;;;14.60;99.90;;;;;;5073906;28;20040;-63
2023/07/23 04:29:02;;;;;;;18.55;13.93;;;14.60;99.90;;;;;;5073861;28;20446;-63
2023/07/23 04:31:28;;;;;;;17.02;11.88;;;14.70;99.90;;;;;;5056109;28;20059;-63
2023/07/23 04:33:54;;;;;;;18.10;13.20;;;14.70;99.90;;;;;;5068966;28;20169;-62
2023/07/23 04:36:20;;;;;;;18.73;13.07;;;14.70;99.90;;;;;;5075904;28;20511;-62
2023/07/23 04:38:46;;;;;;;16.08;12.65;;;14.70;99.90;;;;;;5093599;28;20472;-62
2023/07/23 04:41:12;;;;;;;16.30;11.95;;;14.70;99.90;;;;;;5093682;28;20079;-62
2023/07/23 04:43:39;;;;;;;17.67;11.90;;;14.70;99.90;;;;;;5093577;28;20089;-62
2023/07/23 04:46:05;;;;;;;18.30;12.40;;;14.80;99.90;;;;;;5075389;28;20044;-62
2023/07/23 04:48:35;;;;;;;20.30;13.52;;;14.80;99.90;;;;;;5093739;28;20047;-62
2023/07/23 04:51:03;;;;;;;16.90;13.07;;;14.80;99.90;;;;;;5093732;28;20066;-63
2023/07/23 04:53:29;;;;;;;17.83;13.27;;;14.80;99.90;;;;;;5075334;28;20048;-63
2023/07/23 04:55:58;;;;;;;16.13;12.15;;;14.70;99.90;;;;;;5093653;28;20166;-63
2023/07/23 04:58:25;;;;;;;17.95;12.45;;;14.80;99.90;;;;;;5093358;28;20064;-63
2023/07/23 05:00:52;;;;;;;21.90;14.30;;;14.80;99.90;;;;;;5093632;28;20044;-62
2023/07/23 05:03:18;;;;;;;16.52;13.38;;;14.80;99.90;;;;;;5093630;28;20123;-63
2023/07/23 05:05:51;;;;;;;18.77;13.18;;;14.80;99.90;;;;;;5093509;28;20055;-63
2023/07/23 05:08:18;;;;;;;17.55;13.32;;;14.80;99.90;;;;;;5093528;28;20051;-63
2023/07/23 05:10:45;;;;;;;16.58;13.10;;;14.80;99.90;;;;;;5058277;28;20106;-63
2023/07/23 05:13:12;;;;;;;16.63;12.60;;;14.80;99.90;;;;;;5075139;28;20131;-63
2023/07/23 05:15:38;;;;;;;18.65;14.00;;;14.80;99.90;;;;;;5093449;28;20040;-63
2023/07/23 05:18:04;;;;;;;18.83;13.20;;;14.80;99.90;;;;;;5093076;28;20441;-63
2023/07/23 05:20:30;;;;;;;19.13;13.90;;;14.80;99.90;;;;;;5093422;28;20039;-63
2023/07/23 05:22:56;;;;;;;17.10;12.98;;;14.80;99.90;;;;;;5094053;28;20071;-63
2023/07/23 05:25:22;;;;;;;17.65;13.15;;;14.90;99.90;;;;;;5079405;28;20044;-63
2023/07/23 05:27:49;;;;;;;18.85;14.05;;;14.90;99.90;;;;;;5097553;28;20043;-63
2023/07/23 05:30:16;;;;;;;17.63;13.18;;;14.90;99.90;;;;;;5097477;28;20036;-63
2023/07/23 05:32:42;;;;;;;18.30;13.55;;;14.90;99.90;;;;;;5093297;28;20132;-63
2023/07/23 05:35:08;;;;;;;16.92;13.10;;;14.90;99.90;;;;;;5076844;28;20063;-63
2023/07/23 05:37:34;;;;;;;17.23;13.57;;;15.00;99.90;;;;;;5076848;28;20033;-63
2023/07/23 05:39:59;;;;;;;17.58;13.30;;;15.00;99.90;;;;;;5059099;28;20051;-63
2023/07/23 05:42:25;;;;;;;14.88;11.23;;;15.00;99.90;;;;;;5076675;28;20067;-63
2023/07/23 05:44:51;;;;;;;17.50;12.55;;;15.00;99.90;;;;;;5076742;28;20067;-63
2023/07/23 05:47:17;;;;;;;17.70;13.05;;;15.10;99.90;;;;;;5076904;28;20041;-63
2023/07/23 05:49:42;;;;;;;17.73;12.77;;;15.10;99.90;;;;;;5059007;28;20528;-63
2023/07/23 05:52:08;;;;;;;18.00;14.20;;;15.10;99.90;;;;;;5076741;28;20171;-63
2023/07/23 05:54:34;;;;;;;17.00;13.40;;;15.10;99.90;;;;;;5025696;28;20219;-63
2023/07/23 05:57:00;;;;;;;18.45;13.18;;;15.10;99.90;;;;;;5076754;28;20028;-63
2023/07/23 05:59:26;;;;;;;19.83;13.18;;;15.20;99.90;;;;;;5041814;28;20106;-63
2023/07/23 06:01:52;;;;;;;17.98;13.13;;;15.20;99.90;;;;;;5058460;28;20048;-63
2023/07/23 06:04:19;;;;;;;17.35;13.02;;;15.20;99.90;;;;;;5076378;28;20043;-63
2023/07/23 06:06:44;;;;;;;17.27;12.90;;;15.30;99.90;;;;;;5058304;28;20072;-64
2023/07/23 06:09:10;;;;;;;18.48;13.80;;;15.30;99.90;;;;;;5041755;28;20076;-63
2023/07/23 06:11:36;;;;;;;17.13;12.68;;;15.40;99.90;;;;;;5076135;28;20036;-63
2023/07/23 06:14:02;;;;;;;18.02;13.60;;;15.40;99.90;;;;;;5076068;28;20036;-63
2023/07/23 06:16:30;;;;;;;16.60;12.27;;;15.50;99.90;;;;;;5076398;28;20473;-63
2023/07/23 06:18:59;;;;;;;16.65;12.77;;;15.50;99.90;;;;;;5075988;28;20048;-63
2023/07/23 06:21:25;;;;;;;18.23;13.07;;;15.60;99.90;;;;;;5076278;28;20047;-62
2023/07/23 06:23:52;;;;;;;16.30;12.35;;;15.60;99.90;;;;;;5076154;28;20476;-63
2023/07/23 06:26:17;;;;;;;15.88;12.32;;;15.70;99.90;;;;;;5076057;28;20044;-63
2023/07/23 06:28:43;;;;;;;17.05;11.95;;;15.60;99.90;;;;;;5041157;28;20485;-63
2023/07/23 06:31:09;;;;;;;17.27;11.88;;;15.70;99.90;;;;;;5057943;28;20059;-63
2023/07/23 06:33:35;;;;;;;15.48;11.93;;;15.80;99.90;;;;;;5077346;28;20056;-63
2023/07/23 06:36:02;;;;;;;17.13;11.77;;;15.80;99.90;;;;;;5075815;28;20209;-63
2023/07/23 06:38:28;;;;;;;16.75;11.30;;;15.90;99.90;;;;;;5057768;28;20051;-63
2023/07/23 06:40:55;;;;;;;17.92;12.25;;;16.00;99.90;;;;;;5058142;28;20396;-63
2023/07/23 06:43:22;;;;;;;17.88;12.18;;;16.00;99.90;;;;;;5075564;28;20033;-63
2023/07/23 06:45:49;;;;;;;16.15;12.43;;;16.10;99.90;;;;;;5075814;28;20040;-63
2023/07/23 06:48:17;;;;;;;15.77;11.30;;;16.10;99.90;;;;;;5075420;28;20040;-63
2023/07/23 06:50:45;;;;;;;16.05;11.30;;;16.10;99.90;;;;;;5075742;28;20037;-62
2023/07/23 06:53:10;;;;;;;18.00;11.13;;;16.20;99.90;;;;;;5057434;28;20055;-62
2023/07/23 06:56:00;;;;;;;16.15;11.70;;;16.30;99.90;;;;;;5075530;28;20036;-62
2023/07/23 06:58:28;;;;;;;16.80;11.10;;;16.30;99.90;;;;;;5075698;28;20098;-62
2023/07/23 07:00:54;;;;;;;17.67;11.35;;;16.40;99.90;;;;;;5057345;28;20044;-62
2023/07/23 07:03:20;;;;;;;15.57;11.80;;;16.40;99.90;;;;;;5040601;28;20106;-62
2023/07/23 07:05:46;;;;;;;15.88;11.18;;;16.50;99.90;;;;;;5075478;28;20064;-62
2023/07/23 07:08:12;;;;;;;16.23;11.25;;;16.60;99.90;;;;;;5057259;28;20045;-62
2023/07/23 07:10:38;;;;;;;17.73;11.95;;;16.60;99.90;;;;;;5041153;28;20041;-63
2023/07/23 07:13:04;;;;;;;14.48;11.05;;;16.60;99.90;;;;;;5056956;28;20036;-62
2023/07/23 07:15:29;;;;;;;18.35;11.75;;;16.60;99.90;;;;;;5075030;28;20033;-62
2023/07/23 07:17:55;;;;;;;16.17;11.60;;;16.70;99.90;;;;;;5040367;28;20032;-62
2023/07/23 07:20:21;;;;;;;15.93;11.80;;;16.80;99.90;;;;;;5075264;28;20119;-62
2023/07/23 07:22:47;;;;;;;17.95;11.52;;;16.80;99.90;;;;;;5056899;28;20044;-62
2023/07/23 07:25:13;;;;;;;16.80;11.57;;;16.80;99.90;;;;;;5057079;28;20037;-62
2023/07/23 07:27:39;;;;;;;19.30;11.57;;;16.80;99.90;;;;;;5075125;28;20480;-62
2023/07/23 07:30:05;;;;;;;15.13;11.50;;;16.80;99.90;;;;;;5056640;28;20036;-62
2023/07/23 07:32:31;;;;;;;17.23;11.35;;;16.80;99.90;;;;;;5042768;28;20071;-63
2023/07/23 07:34:57;;;;;;;15.48;12.02;;;16.80;99.90;;;;;;5074979;28;20044;-63
2023/07/23 07:37:23;;;;;;;15.95;11.48;;;16.80;99.90;;;;;;5074974;28;20047;-63
2023/07/23 07:39:48;;;;;;;15.93;10.30;;;16.80;99.90;;;;;;5074901;28;20036;-63
2023/07/23 07:42:14;;;;;;;16.83;11.73;;;16.80;99.90;;;;;;5056672;28;20041;-64
2023/07/23 07:44:40;;;;;;;16.63;11.70;;;16.90;99.90;;;;;;5056739;28;20082;-63
2023/07/23 07:47:05;;;;;;;14.00;10.45;;;16.80;99.90;;;;;;5055523;28;20040;-63
2023/07/23 07:49:31;;;;;;;16.15;11.65;;;16.80;99.90;;;;;;5056551;28;20068;-63
2023/07/23 07:51:57;;;;;;;18.90;12.80;;;16.80;99.90;;;;;;5056640;28;20032;-63
2023/07/23 07:54:23;;;;;;;19.85;12.00;;;16.80;99.90;;;;;;5056607;28;20041;-63
2023/07/23 07:56:50;;;;;;;18.38;11.43;;;16.80;99.90;;;;;;5056662;28;20500;-63
2023/07/23 07:59:15;;;;;;;16.35;10.75;;;16.70;99.90;;;;;;5056281;28;20067;-64
2023/07/23 08:01:41;;;;;;;16.52;11.20;;;16.70;99.90;;;;;;5074767;28;20032;-63
2023/07/23 08:04:10;;;;;;;18.55;11.25;;;16.60;99.90;;;;;;5073920;28;20051;-62
2023/07/23 08:06:37;;;;;;;17.33;11.85;;;16.60;99.90;;;;;;5074269;28;20455;-63
2023/07/23 08:09:04;;;;;;;18.85;11.90;;;16.60;99.90;;;;;;5074269;28;20032;-62
2023/07/23 08:11:31;;;;;;;17.75;11.70;;;16.50;99.90;;;;;;5056358;28;20063;-62
2023/07/23 08:13:57;;;;;;;17.38;11.73;;;16.50;99.90;;;;;;5074225;28;20469;-62
2023/07/23 08:16:22;;;;;;;17.42;11.57;;;16.40;99.90;;;;;;5074069;28;20407;-63
2023/07/23 08:18:49;;;;;;;17.65;12.05;;;16.40;99.90;;;;;;5056106;28;20037;-63
2023/07/23 08:21:15;;;;;;;16.25;11.88;;;16.30;99.90;;;;;;5074038;28;20127;-63
2023/07/23 08:23:41;;;;;;;16.65;11.45;;;16.30;99.90;;;;;;5073758;28;20071;-63
2023/07/23 08:26:07;;;;;;;16.77;11.30;;;16.30;99.90;;;;;;5055827;28;20079;-63
2023/07/23 08:28:37;;;;;;;18.80;11.40;;;16.30;99.90;;;;;;5073567;28;20079;-63
2023/07/23 08:31:04;;;;;;;14.85;10.52;;;16.30;99.90;;;;;;5055513;28;20045;-62
2023/07/23 08:33:31;;;;;;;15.15;10.85;;;16.40;99.90;;;;;;5063362;28;20135;-63
2023/07/23 08:36:00;;;;;;;14.25;10.00;;;16.40;99.90;;;;;;5094085;28;20044;-63
2023/07/23 08:38:27;;;;;;;15.10;10.27;;;16.30;99.90;;;;;;5094053;28;20392;-63
2023/07/23 08:40:58;;;;;;;13.98;9.93;;;16.40;99.90;;;;;;5093913;28;20384;-63
2023/07/23 08:43:42;;;;;;;14.90;10.40;;;16.40;99.90;;;;;;5093892;28;20530;-63
2023/07/23 08:46:21;;;;;;;13.38;9.35;;;16.40;99.90;;;;;;5093709;28;20040;-63
2023/07/23 08:49:03;;;;;;;14.07;9.95;;;16.40;99.90;;;;;;5093616;28;20040;-63
2023/07/23 08:51:33;;;;;;;;;;;16.50;99.90;;;;;;5075824;28;20041;-63
2023/07/23 08:54:00;;;;;;;13.57;10.20;;;16.50;99.90;;;;;;5093499;28;19916;-63
2023/07/23 08:56:26;;;;;;;14.13;9.48;;;16.40;99.90;;;;;;5058844;28;20549;-63
2023/07/23 08:58:53;;;;;;;13.77;9.50;;;16.50;99.90;;;;;;5075357;28;20043;-63
2023/07/23 09:01:19;;;;;;;13.18;9.40;;;16.50;99.90;;;;;;5093598;28;20108;-63
2023/07/23 09:03:44;;;;;;;15.48;10.10;;;16.50;99.90;;;;;;5058778;28;20039;-63
2023/07/23 09:06:11;;;;;;;15.05;9.45;;;16.50;99.90;;;;;;5093255;28;20055;-63
2023/07/23 09:08:37;;;;;;;14.98;9.80;;;16.40;99.90;;;;;;5075377;28;20078;-63
2023/07/23 09:11:09;;;;;;;13.57;9.23;;;16.40;99.90;;;;;;5093499;28;20039;-63
2023/07/23 09:13:36;;;;;;;15.43;10.00;;;16.40;99.90;;;;;;5093097;28;20040;-63
2023/07/23 09:16:04;;;;;;;13.93;10.00;;;16.40;99.90;;;;;;5093409;28;20483;-63
2023/07/23 09:18:31;;;;;;;14.02;10.43;;;16.40;99.90;;;;;;5093522;28;20059;-63
2023/07/23 09:20:57;;;;;;;14.60;10.60;;;16.40;99.90;;;;;;5091757;28;20043;-62
2023/07/23 09:23:26;;;;;;;12.52;9.20;;;16.30;99.90;;;;;;5093062;28;20036;-63
2023/07/23 09:25:52;;;;;;;14.20;10.68;;;16.30;99.90;;;;;;5093293;28;20116;-63
2023/07/23 09:28:21;;;;;;;14.60;10.45;;;16.30;99.90;;;;;;5074864;28;20048;-63
2023/07/23 09:30:47;;;;;;;14.02;10.05;;;16.30;99.90;;;;;;5075098;28;20040;-64
2023/07/23 09:33:13;;;;;;;12.90;9.13;;;16.30;99.90;;;;;;5091485;28;20063;-63
2023/07/23 09:35:41;;;;;;;12.10;8.98;;;16.30;99.90;;;;;;5093296;28;20040;-63
2023/07/23 09:38:14;;;;;;;12.90;9.35;;;16.40;99.90;;;;;;5074878;28;20044;-63
2023/07/23 09:40:41;;;;;;;13.48;9.95;;;16.40;99.90;;;;;;5074856;28;20036;-63
2023/07/23 09:43:08;;;;;;;12.48;9.55;;;16.40;99.90;;;;;;5093231;28;20573;-62
2023/07/23 09:45:39;;;;;;;13.52;9.52;;;16.40;99.90;;;;;;5092828;28;20039;-66
2023/07/23 09:48:06;;;;;;;12.60;9.50;;;16.40;99.90;;;;;;5058081;28;20048;-62
2023/07/23 09:50:32;;;;;;;14.15;9.75;;;16.40;99.90;;;;;;5092824;28;20110;-62
2023/07/23 09:52:58;;;;;;;11.57;8.90;;;16.40;99.90;;;;;;5074788;28;20123;-62
2023/07/23 09:55:24;;;;;;;12.15;9.00;;;16.40;99.90;;;;;;5093556;28;20029;-73
2023/07/23 09:57:51;;;;;;;12.38;8.98;;;16.40;99.90;;;;;;5093168;28;20032;-73
2023/07/23 10:00:20;;;;;;;12.77;8.93;;;16.40;99.90;;;;;;5091851;28;20032;-73
2023/07/23 10:02:49;;;;;;;11.23;8.63;;;16.40;99.90;;;;;;5057416;28;20049;-73
2023/07/23 10:05:17;;;;;;;11.77;8.20;;;16.40;99.90;;;;;;5093057;28;20584;-73
2023/07/23 10:07:45;;;;;;;12.40;8.35;;;16.40;99.90;;;;;;5092986;28;20081;-73
2023/07/23 10:10:14;;;;;;;10.35;7.05;;;16.40;99.90;;;;;;5095719;28;20043;-73
2023/07/23 10:12:39;;;;;;;9.75;6.40;;;16.50;99.90;;;;;;5061669;28;20404;-73
2023/07/23 10:15:07;;;;;;;10.15;7.07;;;16.50;99.90;;;;;;5078231;28;20032;-74
2023/07/23 10:17:37;;;;;;;9.73;6.90;;;16.50;99.90;;;;;;5096451;28;20090;-74
2023/07/23 10:20:08;;;;;;;10.32;7.10;;;16.50;99.90;;;;;;5096642;28;20535;-74
2023/07/23 10:22:35;;;;;;;9.68;7.20;;;16.60;99.90;;;;;;5095516;28;20040;-74
2023/07/23 10:25:21;;;;;;;8.60;6.40;;;16.60;99.90;;;;;;5096509;28;20523;-74
2023/07/23 10:27:55;;;;;;;10.00;6.60;;;16.60;99.90;;;;;;5096527;28;20505;-74
2023/07/23 10:30:21;;;;;;;7.90;5.93;;;16.60;99.90;;;;;;5096414;28;20043;-74
2023/07/23 10:33:09;;;;;;;10.10;6.38;;;16.60;99.90;;;;;;5096031;28;20480;-72
2023/07/23 10:35:59;;;;;;;8.35;5.82;;;16.70;99.90;;;;;;5095876;28;20044;-74
2023/07/23 10:38:30;;;;;;;9.55;6.53;;;16.70;99.90;;;;;;5093057;28;20044;-75
2023/07/23 10:40:56;;;;;;;9.57;6.57;;;16.70;99.90;;;;;;5095973;28;20064;-74
2023/07/23 10:43:22;;;;;;;8.82;6.45;;;16.70;99.90;;;;;;5096175;28;20036;-74
2023/07/23 10:46:09;;;;;;;9.00;6.72;;;16.80;99.90;;;;;;5096213;28;20040;-75
2023/07/23 10:48:48;;;;;;;10.75;7.28;;;16.70;99.90;;;;;;5077950;28;20561;-73
2023/07/23 10:51:22;;;;;;;8.73;5.75;;;16.70;99.90;;;;;;5096079;28;20050;-74
2023/07/23 10:54:04;;;;;;;9.68;7.05;;;16.70;99.90;;;;;;5095976;28;20046;-74
2023/07/23 10:56:40;;;;;;;10.18;7.13;;;16.70;99.90;;;;;;5095978;28;20111;-74
2023/07/23 10:59:13;;;;;;;10.35;7.30;;;16.70;99.90;;;;;;5077589;28;20435;-75
2023/07/23 11:01:44;;;;;;;11.02;7.15;;;16.70;99.90;;;;;;5095750;28;20043;-74
2023/07/23 11:04:12;;;;;;;10.50;7.45;;;16.70;99.90;;;;;;5077663;28;20449;-74
2023/07/23 11:06:52;;;;;;;11.98;8.02;;;16.70;99.90;;;;;;5095771;28;20078;-74
2023/07/23 11:09:24;;;;;;;9.48;6.85;;;16.70;99.90;;;;;;5095318;28;20071;-74
2023/07/23 11:11:51;;;;;;;10.05;7.40;;;16.80;99.90;;;;;;5077434;28;20044;-75
2023/07/23 11:14:22;;;;;;;10.70;7.82;;;16.80;99.90;;;;;;5095533;28;20037;-74
2023/07/23 11:16:53;;;;;;;10.65;7.90;;;16.80;99.90;;;;;;5061072;28;20055;-74
2023/07/23 11:19:20;;;;;;;10.15;7.43;;;16.70;99.90;;;;;;5095215;28;20040;-75
2023/07/23 11:21:49;;;;;;;11.05;8.05;;;16.70;99.90;;;;;;5075949;28;20082;-75
2023/07/23 11:24:19;;;;;;;10.98;8.02;;;16.70;99.90;;;;;;5094033;28;20039;-75
2023/07/23 11:26:48;;;;;;;11.88;8.15;;;16.70;99.90;;;;;;5095203;28;20549;-74
2023/07/23 11:29:14;;;;;;;12.13;8.18;;;16.70;99.90;;;;;;5076900;28;20079;-74
2023/07/23 11:31:41;;;;;;;11.05;8.25;;;16.80;99.90;;;;;;5094815;28;20043;-74
2023/07/23 11:34:07;;;;;;;10.60;8.18;;;16.80;99.90;;;;;;5076600;28;20105;-74
2023/07/23 11:36:34;;;;;;;11.02;8.00;;;16.80;99.90;;;;;;5077004;28;20071;-75
2023/07/23 11:39:02;;;;;;;10.77;7.85;;;16.80;99.90;;;;;;5095088;28;20048;-74
2023/07/23 11:41:39;;;;;;;11.70;7.90;;;16.80;99.90;;;;;;5094831;28;20482;-74
2023/07/23 11:44:05;;;;;;;12.00;7.93;;;16.80;99.90;;;;;;5094963;28;20118;-73
2023/07/23 11:46:36;;;;;;;11.50;7.85;;;16.90;99.90;;;;;;5094596;28;20040;-73
2023/07/23 11:49:11;;;;;;;11.93;8.35;;;16.90;99.90;;;;;;5094933;28;20075;-74
2023/07/23 11:51:39;;;;;;;12.02;8.13;;;16.90;99.90;;;;;;5076624;28;20047;-73
2023/07/23 11:54:10;;;;;;;11.40;7.45;;;17.00;99.90;;;;;;5094860;28;20082;-74
2023/07/23 11:56:41;;;;;;;12.25;8.15;;;17.00;99.90;;;;;;5094676;28;20044;-74
2023/07/23 11:59:09;;;;;;;12.70;7.78;;;17.00;99.90;;;;;;5094583;28;20040;-74
2023/07/23 12:01:36;;;;;;;11.07;7.43;;;17.00;99.90;;;;;;5094611;28;20047;-73
2023/07/23 12:04:03;;;;;;;11.15;7.93;;;16.90;99.90;;;;;;5076231;28;20051;-72
2023/07/23 12:06:31;;;;;;;10.95;7.57;;;17.00;99.90;;;;;;5076403;28;20040;-73
2023/07/23 12:08:57;;;;;;;10.95;7.85;;;17.00;99.90;;;;;;5094359;28;20040;-72
2023/07/23 12:11:25;;;;;;;9.90;6.90;;;17.00;99.90;;;;;;5059790;28;20042;-72
2023/07/23 12:13:56;;;;;;;11.90;6.90;;;17.00;99.90;;;;;;5094250;28;20052;-71
2023/07/23 12:16:35;;;;;;;11.15;6.93;;;17.10;99.90;;;;;;5094477;28;20089;-71
2023/07/23 12:19:09;;;;;;;11.25;6.90;;;17.10;99.90;;;;;;5076620;28;20480;-72
2023/07/23 12:21:46;;;;;;;9.77;6.50;;;17.10;99.90;;;;;;5076072;28;20044;-73
2023/07/23 12:24:12;;;;;;;9.40;6.38;;;17.10;99.90;;;;;;5093903;28;20032;-73
2023/07/23 12:26:38;;;;;;;10.25;6.97;;;17.10;99.90;;;;;;5075737;28;20047;-74
2023/07/23 12:29:04;;;;;;;8.55;5.68;;;17.10;99.90;;;;;;5094246;28;20040;-73
2023/07/23 12:31:31;;;;;;;8.30;5.75;;;17.10;99.90;;;;;;5093172;28;20044;-73